Terminal Aerodrome Forecast
Issued by NWS

Home | Current Version | Previous Version | Text Only | Print | Product List | Glossary Off
Versions: 1 2 3 4 5 6 7 8 9 10 11 12 13 14 15 16 17 18 19 20 21 22 23 24 25 26 27 28 29

396
FTUS43 KLOT 170210 AAA
TAFMDW
TAF AMD
KMDW 170210Z 1702/1724 16008KT 6SM -SHRA SCT040 BKN070
     FM170300 17009KT P6SM -SHRA VCTS SCT020 BKN040CB
     FM170600 19010KT P6SM SCT012 BKN040
      TEMPO 1709/1713 BKN012
     FM171300 24012G20KT P6SM SCT020 BKN035
     FM171700 26018G28KT P6SM BKN050=

USA.gov is the U.S. government's official web portal to all federal, state and local government web resources and services.